createdAt,value
2018-12-30T00:00:08.333Z,12.29
2018-12-30T00:02:41.268Z,12.27
2018-12-30T00:05:13.242Z,12.06
2018-12-30T00:07:44.700Z,11.98
2018-12-30T00:10:16.502Z,11.95
2018-12-30T00:12:47.882Z,11.98
2018-12-30T00:15:19.962Z,11.96
2018-12-30T00:17:51.771Z,12.09
2018-12-30T00:20:23.346Z,12.09
2018-12-30T00:22:54.714Z,12.13
2018-12-30T00:25:26.131Z,12.13
2018-12-30T00:27:57.786Z,12.17
2018-12-30T00:30:29.570Z,12.17
2018-12-30T00:33:01.049Z,12.25
2018-12-30T00:35:32.521Z,12.25
2018-12-30T00:38:03.924Z,12.19
2018-12-30T00:40:35.225Z,12.03
2018-12-30T00:43:06.622Z,12.08
2018-12-30T00:45:38.122Z,12.06
2018-12-30T00:48:09.937Z,12.04
2018-12-30T00:50:41.659Z,12.04
2018-12-30T00:53:13.057Z,11.82
2018-12-30T00:55:44.287Z,11.82
2018-12-30T00:58:15.745Z,11.62
2018-12-30T01:00:47.585Z,11.70
2018-12-30T01:03:19.230Z,11.73
2018-12-30T01:05:51.822Z,11.66
2018-12-30T01:08:23.380Z,11.66
2018-12-30T01:10:54.709Z,11.64
2018-12-30T01:13:26.832Z,11.52
2018-12-30T01:15:58.169Z,11.59
2018-12-30T01:18:30.127Z,11.61
2018-12-30T01:21:01.535Z,11.58
2018-12-30T01:23:33.284Z,11.51
2018-12-30T01:26:04.740Z,11.51
2018-12-30T01:28:36.173Z,11.95
2018-12-30T01:31:07.513Z,11.95
2018-12-30T01:33:39.247Z,13.64
2018-12-30T01:36:10.965Z,13.81
2018-12-30T01:38:42.430Z,13.86
2018-12-30T01:41:13.790Z,13.90
2018-12-30T01:43:44.896Z,13.95
2018-12-30T01:46:16.538Z,13.95
2018-12-30T01:48:48.290Z,13.95
2018-12-30T01:51:20.012Z,13.95
2018-12-30T01:53:51.712Z,13.96
2018-12-30T01:56:23.433Z,13.96
2018-12-30T01:58:55.170Z,13.96
2018-12-30T02:01:26.434Z,14.03
2018-12-30T02:03:57.745Z,14.03
2018-12-30T02:06:29.342Z,14.05
2018-12-30T02:09:01.217Z,14.03
2018-12-30T02:11:34.096Z,14.03
2018-12-30T02:14:05.583Z,14.08
2018-12-30T02:16:37.046Z,14.08
2018-12-30T02:19:09.405Z,14.09
2018-12-30T02:21:41.134Z,14.14
2018-12-30T02:24:12.808Z,14.09
2018-12-30T02:26:44.214Z,14.12
2018-12-30T02:29:15.801Z,14.13
2018-12-30T02:31:47.207Z,14.15
2018-12-30T02:34:22.222Z,14.16
2018-12-30T02:36:53.724Z,14.16
2018-12-30T02:39:24.923Z,14.21
2018-12-30T02:41:56.758Z,14.27
2018-12-30T02:44:28.387Z,14.23
2018-12-30T02:47:00.578Z,14.21
2018-12-30T02:49:32.422Z,14.21
2018-12-30T02:52:03.955Z,14.25
2018-12-30T02:54:35.560Z,14.29
2018-12-30T02:57:07.185Z,14.34
2018-12-30T02:59:38.630Z,14.34
2018-12-30T03:02:10.301Z,14.31
2018-12-30T03:04:41.612Z,14.31
2018-12-30T03:07:15.541Z,14.32
2018-12-30T03:09:47.266Z,14.37
2018-12-30T03:12:18.596Z,14.37
2018-12-30T03:14:49.822Z,14.44
2018-12-30T03:17:21.455Z,14.44
2018-12-30T03:19:53.101Z,14.40
2018-12-30T03:22:24.640Z,14.37
2018-12-30T03:24:56.112Z,14.37
2018-12-30T03:27:27.893Z,14.40
2018-12-30T03:29:59.244Z,14.38
2018-12-30T03:32:31.080Z,14.39
2018-12-30T03:35:02.677Z,14.44
2018-12-30T03:37:33.962Z,14.44
2018-12-30T03:40:06.162Z,14.49
2018-12-30T03:42:37.473Z,14.49
2018-12-30T03:45:11.977Z,14.47
2018-12-30T03:47:43.767Z,14.46
2018-12-30T03:50:16.488Z,14.51
2018-12-30T03:52:47.907Z,14.51
2018-12-30T03:55:19.217Z,14.53
2018-12-30T03:57:50.854Z,14.56
2018-12-30T04:00:22.018Z,14.62
2018-12-30T04:02:53.619Z,14.62
2018-12-30T04:05:24.968Z,14.59
2018-12-30T04:07:56.652Z,14.64
2018-12-30T04:10:28.110Z,14.66
2018-12-30T04:12:59.842Z,14.66
2018-12-30T04:15:31.198Z,14.70
2018-12-30T04:18:02.751Z,14.72
2018-12-30T04:20:34.423Z,14.77
2018-12-30T04:23:05.700Z,14.77
2018-12-30T04:25:37.437Z,14.79
2018-12-30T04:28:11.948Z,14.74
2018-12-30T04:30:43.326Z,14.84
2018-12-30T04:33:14.899Z,14.84
2018-12-30T04:35:46.569Z,14.84
2018-12-30T04:38:18.136Z,14.82
2018-12-30T04:40:49.545Z,14.89
2018-12-30T04:43:20.995Z,14.89
2018-12-30T04:45:52.436Z,14.85
2018-12-30T04:48:24.263Z,14.85
2018-12-30T04:50:56.180Z,14.94
2018-12-30T04:53:27.488Z,15.04
2018-12-30T04:55:58.890Z,15.04
2018-12-30T04:58:30.629Z,14.99
2018-12-30T05:01:02.360Z,15.02
2018-12-30T05:03:33.864Z,15.02
2018-12-30T05:06:05.111Z,15.04
2018-12-30T05:08:36.517Z,15.05
2018-12-30T05:11:07.819Z,15.05
2018-12-30T05:13:39.010Z,15.16
2018-12-30T05:16:10.823Z,15.16
2018-12-30T05:18:42.360Z,15.16
2018-12-30T05:21:14.356Z,15.17
2018-12-30T05:23:45.877Z,15.20
2018-12-30T05:26:17.087Z,15.20
2018-12-30T05:28:48.524Z,15.38
2018-12-30T05:31:20.468Z,15.34
2018-12-30T05:33:52.007Z,15.33
2018-12-30T05:36:23.652Z,15.33
2018-12-30T05:38:55.154Z,15.31
2018-12-30T05:41:26.397Z,15.42
2018-12-30T05:43:57.837Z,15.42
2018-12-30T05:46:28.924Z,15.31
2018-12-30T05:49:00.409Z,15.31
2018-12-30T05:51:32.194Z,15.41
2018-12-30T05:54:03.816Z,15.44
2018-12-30T05:56:35.106Z,15.44
2018-12-30T05:59:06.565Z,15.56
2018-12-30T06:01:37.710Z,15.53
2018-12-30T06:04:09.582Z,15.53
2018-12-30T06:06:41.224Z,15.52
2018-12-30T06:09:12.532Z,15.54
2018-12-30T06:11:43.730Z,15.45
2018-12-30T06:14:15.026Z,15.59
2018-12-30T06:16:46.684Z,15.78
2018-12-30T06:19:18.227Z,15.78
2018-12-30T06:21:49.932Z,15.60
2018-12-30T06:24:22.190Z,15.58
2018-12-30T06:26:53.615Z,15.58
2018-12-30T06:29:25.033Z,15.60
2018-12-30T06:31:56.569Z,15.63
2018-12-30T06:34:28.063Z,15.63
2018-12-30T06:36:59.430Z,15.50
2018-12-30T06:39:30.929Z,15.50
2018-12-30T06:42:02.361Z,15.70
2018-12-30T06:44:33.967Z,15.85
2018-12-30T06:47:05.573Z,15.79
2018-12-30T06:49:36.910Z,15.79
2018-12-30T06:52:08.697Z,15.73
2018-12-30T06:54:40.459Z,15.80
2018-12-30T06:57:11.832Z,15.82
2018-12-30T06:59:43.030Z,15.97
2018-12-30T07:02:14.546Z,16.45
2018-12-30T07:04:45.967Z,16.25
2018-12-30T07:07:17.177Z,16.25
2018-12-30T07:09:48.507Z,16.26
2018-12-30T07:12:20.039Z,16.13
2018-12-30T07:14:51.635Z,16.13
2018-12-30T07:17:22.885Z,16.12
2018-12-30T07:19:54.288Z,16.12
2018-12-30T07:22:25.951Z,16.28
2018-12-30T07:24:57.299Z,16.28
2018-12-30T07:27:28.876Z,16.22
2018-12-30T07:30:00.624Z,16.34
2018-12-30T07:32:31.894Z,16.34
2018-12-30T07:35:03.513Z,16.33
2018-12-30T07:37:35.042Z,16.54
2018-12-30T07:40:06.669Z,16.54
2018-12-30T07:42:38.155Z,16.46
2018-12-30T07:45:09.845Z,16.76
2018-12-30T07:47:41.034Z,16.76
2018-12-30T07:50:12.261Z,16.83
2018-12-30T07:52:44.291Z,16.83
2018-12-30T07:55:17.310Z,16.66
2018-12-30T07:57:48.750Z,16.66
2018-12-30T08:00:20.146Z,17.20
2018-12-30T08:02:52.544Z,17.34
2018-12-30T08:05:24.344Z,17.32
2018-12-30T08:07:55.974Z,17.32
2018-12-30T08:10:27.830Z,17.05
2018-12-30T08:12:59.373Z,17.41
2018-12-30T08:15:30.810Z,16.81
2018-12-30T08:18:02.239Z,16.86
2018-12-30T08:20:33.577Z,16.86
2018-12-30T08:23:05.491Z,17.13
2018-12-30T08:25:37.117Z,17.17
2018-12-30T08:28:09.084Z,17.02
2018-12-30T08:30:40.456Z,17.06
2018-12-30T08:33:12.063Z,17.23
2018-12-30T08:35:43.613Z,17.05
2018-12-30T08:38:15.029Z,17.05
2018-12-30T08:40:46.678Z,17.27
2018-12-30T08:43:18.310Z,17.24
2018-12-30T08:45:49.686Z,17.24
2018-12-30T08:48:21.390Z,17.03
2018-12-30T08:50:53.007Z,16.90
2018-12-30T08:53:29.316Z,16.93
2018-12-30T08:55:57.937Z,17.68
2018-12-30T08:58:29.185Z,17.53
2018-12-30T09:01:00.504Z,17.53
2018-12-30T09:03:32.249Z,17.37
2018-12-30T09:06:03.613Z,17.37
2018-12-30T09:08:34.757Z,17.23
2018-12-30T09:14:05.274Z,17.87
2018-12-30T09:16:36.731Z,17.87
2018-12-30T09:19:08.303Z,17.74
2018-12-30T09:21:39.848Z,17.58
2018-12-30T09:24:11.513Z,17.85
2018-12-30T09:26:42.966Z,17.24
2018-12-30T09:29:14.800Z,17.29
2018-12-30T09:31:46.309Z,17.29
2018-12-30T09:34:17.499Z,17.73
2018-12-30T09:36:49.033Z,17.47
2018-12-30T09:39:20.216Z,17.50
2018-12-30T09:41:51.848Z,17.24
2018-12-30T09:44:23.096Z,17.56
2018-12-30T09:46:54.678Z,17.58
2018-12-30T09:49:26.043Z,17.41
2018-12-30T09:51:58.749Z,17.48
2018-12-30T09:54:31.274Z,17.28
2018-12-30T09:57:03.411Z,17.36
2018-12-30T09:59:34.754Z,17.36
2018-12-30T10:02:06.169Z,17.78
2018-12-30T10:04:37.359Z,17.78
2018-12-30T10:07:08.603Z,17.49
2018-12-30T10:09:39.925Z,17.34
2018-12-30T10:12:11.708Z,17.34
2018-12-30T10:14:42.779Z,17.70
2018-12-30T10:17:14.278Z,17.68
2018-12-30T10:19:45.439Z,17.68
2018-12-30T10:22:17.305Z,17.58
2018-12-30T10:24:49.360Z,17.38
2018-12-30T10:27:20.881Z,17.51
2018-12-30T10:29:52.087Z,17.51
2018-12-30T10:32:23.719Z,17.35
2018-12-30T10:34:55.073Z,17.49
2018-12-30T10:37:26.493Z,17.52
2018-12-30T10:39:57.910Z,17.47
2018-12-30T10:42:29.480Z,17.54
2018-12-30T10:45:01.170Z,17.58
2018-12-30T10:47:33.956Z,17.58
2018-12-30T10:50:05.399Z,17.75
2018-12-30T10:52:36.808Z,17.49
2018-12-30T10:55:09.066Z,17.43
2018-12-30T10:57:40.962Z,17.43
2018-12-30T11:00:12.224Z,17.34
2018-12-30T11:02:43.573Z,17.34
2018-12-30T11:05:14.658Z,17.34
2018-12-30T11:07:46.161Z,17.53
2018-12-30T11:10:17.521Z,17.53
2018-12-30T11:12:48.905Z,17.41
2018-12-30T11:15:20.181Z,17.35
2018-12-30T11:17:51.571Z,17.30
2018-12-30T11:20:23.026Z,17.31
2018-12-30T11:22:54.359Z,17.31
2018-12-30T11:25:26.224Z,17.32
2018-12-30T11:27:57.563Z,17.35
2018-12-30T11:30:28.853Z,17.30
2018-12-30T11:33:00.403Z,17.30
2018-12-30T11:35:31.855Z,17.38
2018-12-30T11:38:03.179Z,17.38
2018-12-30T11:40:34.657Z,17.43
2018-12-30T11:43:05.947Z,17.43
2018-12-30T11:45:37.310Z,17.44
2018-12-30T11:48:08.822Z,17.42
2018-12-30T11:50:40.490Z,17.42
2018-12-30T11:53:12.093Z,17.42
2018-12-30T11:55:43.910Z,17.37
2018-12-30T11:58:15.758Z,17.40
2018-12-30T12:00:47.137Z,17.37
2018-12-30T12:03:18.663Z,17.38
2018-12-30T12:05:50.459Z,17.38
2018-12-30T12:08:22.109Z,17.41
2018-12-30T12:10:53.346Z,17.37
2018-12-30T12:13:24.727Z,17.37
2018-12-30T12:15:56.247Z,17.35
2018-12-30T12:18:27.811Z,17.35
2018-12-30T12:20:59.212Z,17.38
2018-12-30T12:23:30.753Z,17.37
2018-12-30T12:26:02.726Z,17.37
2018-12-30T12:28:35.821Z,17.29
2018-12-30T12:31:07.094Z,17.36
2018-12-30T12:33:38.584Z,17.37
2018-12-30T12:36:09.767Z,17.33
2018-12-30T12:38:41.416Z,17.33
2018-12-30T12:41:12.699Z,17.24
2018-12-30T12:43:44.192Z,17.36
2018-12-30T12:46:15.391Z,17.36
2018-12-30T12:48:46.873Z,17.40
2018-12-30T12:51:18.360Z,17.31
2018-12-30T12:53:49.696Z,17.22
2018-12-30T12:56:21.395Z,17.26
2018-12-30T12:58:52.572Z,17.31
2018-12-30T13:01:23.749Z,17.31
2018-12-30T13:03:55.292Z,17.32
2018-12-30T13:06:27.421Z,17.35
2018-12-30T13:09:01.018Z,17.37
2018-12-30T13:11:33.704Z,17.39
2018-12-30T13:14:05.610Z,17.39
2018-12-30T13:16:37.306Z,17.24
2018-12-30T13:19:09.269Z,17.13
2018-12-30T13:21:40.904Z,17.07
2018-12-30T13:24:12.344Z,17.02
2018-12-30T13:26:44.327Z,17.05
2018-12-30T13:29:16.143Z,17.06
2018-12-30T13:31:47.698Z,17.06
2018-12-30T13:34:19.504Z,17.11
2018-12-30T13:36:52.497Z,17.10
2018-12-30T13:39:25.492Z,17.02
2018-12-30T13:41:57.353Z,17.02
2018-12-30T13:44:29.294Z,17.03
2018-12-30T13:47:01.954Z,16.99
2018-12-30T13:49:34.656Z,16.91
2018-12-30T13:52:06.086Z,16.91
2018-12-30T13:54:37.625Z,16.97
2018-12-30T13:57:09.879Z,16.93
2018-12-30T13:59:44.978Z,16.95
2018-12-30T14:02:16.450Z,16.95
2018-12-30T14:04:47.640Z,16.94
2018-12-30T14:07:19.468Z,16.94
2018-12-30T14:09:50.742Z,16.94
2018-12-30T14:12:22.038Z,16.95
2018-12-30T14:14:53.481Z,16.95
2018-12-30T14:17:24.860Z,16.86
2018-12-30T14:19:56.422Z,16.83
2018-12-30T14:22:28.150Z,16.83
2018-12-30T14:24:59.808Z,16.78
2018-12-30T14:27:31.830Z,16.78
2018-12-30T14:30:03.537Z,16.87
2018-12-30T14:32:36.300Z,16.87
2018-12-30T14:35:07.920Z,16.77
2018-12-30T14:37:40.642Z,16.67
2018-12-30T14:40:12.404Z,16.67
2018-12-30T14:42:44.357Z,16.63
2018-12-30T14:45:16.001Z,16.63
2018-12-30T14:47:47.771Z,16.63
2018-12-30T14:50:19.507Z,16.69
2018-12-30T14:52:52.054Z,16.69
2018-12-30T14:55:23.685Z,16.69
2018-12-30T14:57:56.015Z,16.74
2018-12-30T15:00:27.723Z,16.70
2018-12-30T15:03:02.752Z,16.69
2018-12-30T15:05:34.403Z,16.59
2018-12-30T15:08:06.191Z,16.59
2018-12-30T15:10:38.547Z,16.52
2018-12-30T15:13:10.146Z,16.53
2018-12-30T15:15:45.629Z,16.63
2018-12-30T15:18:17.208Z,16.55
2018-12-30T15:20:48.466Z,16.55
2018-12-30T15:23:19.685Z,16.47
2018-12-30T15:25:51.016Z,16.47
2018-12-30T15:28:22.924Z,16.31
2018-12-30T15:30:54.862Z,16.88
2018-12-30T15:33:26.810Z,16.88
2018-12-30T15:35:58.459Z,17.01
2018-12-30T15:38:30.204Z,17.01
2018-12-30T15:41:01.730Z,17.04
2018-12-30T15:43:33.224Z,17.06
2018-12-30T15:46:04.774Z,17.07
2018-12-30T15:48:36.219Z,15.79
2018-12-30T15:51:08.003Z,15.48
2018-12-30T15:53:39.714Z,15.48
2018-12-30T15:56:11.314Z,15.44
2018-12-30T15:58:43.710Z,15.33
2018-12-30T16:01:15.629Z,15.33
2018-12-30T16:03:47.551Z,15.26
2018-12-30T16:06:19.015Z,15.24
2018-12-30T16:08:50.697Z,15.18
2018-12-30T17:02:27.942Z,14.66
2018-12-30T17:05:00.282Z,14.55
2018-12-30T17:07:32.136Z,14.54
2018-12-30T17:10:03.425Z,14.57
2018-12-30T17:12:35.047Z,14.57
2018-12-30T17:15:07.082Z,14.61
2018-12-30T17:17:39.080Z,14.56
2018-12-30T17:20:10.606Z,14.51
2018-12-30T17:22:42.203Z,14.51
2018-12-30T17:25:13.730Z,14.54
2018-12-30T17:27:45.160Z,14.32
2018-12-30T17:30:16.644Z,14.35
2018-12-30T17:32:48.000Z,14.35
2018-12-30T17:35:20.096Z,14.39
2018-12-30T17:37:51.523Z,14.43
2018-12-30T17:40:22.648Z,14.37
2018-12-30T17:42:54.341Z,14.36
2018-12-30T17:45:25.820Z,14.36
2018-12-30T17:47:57.553Z,14.33
2018-12-30T17:50:28.885Z,14.34
2018-12-30T17:53:00.808Z,14.33
2018-12-30T17:55:32.438Z,14.34
2018-12-30T17:58:03.936Z,14.34
2018-12-30T18:00:36.295Z,14.28
2018-12-30T18:03:08.157Z,14.25
2018-12-30T18:05:40.093Z,14.25
2018-12-30T18:08:11.737Z,14.21
2018-12-30T18:10:44.334Z,14.17
2018-12-30T18:13:15.844Z,14.17
2018-12-30T18:15:48.282Z,14.17
2018-12-30T18:18:20.665Z,14.12
2018-12-30T18:20:51.970Z,14.12
2018-12-30T18:23:23.542Z,14.13
2018-12-30T18:25:58.737Z,14.14
2018-12-30T18:28:28.452Z,14.07
2018-12-30T18:31:00.170Z,14.08
2018-12-30T18:33:31.957Z,13.99
2018-12-30T18:36:04.021Z,14.07
2018-12-30T18:38:35.485Z,14.09
2018-12-30T18:41:06.985Z,14.07
2018-12-30T18:43:38.399Z,14.07
2018-12-30T18:46:09.844Z,14.01
2018-12-30T18:48:41.531Z,13.97
2018-12-30T18:51:12.883Z,13.97
2018-12-30T18:53:44.323Z,14.03
2018-12-30T18:56:15.774Z,14.03
2018-12-30T18:58:47.386Z,14.00
2018-12-30T19:01:18.759Z,13.91
2018-12-30T19:03:50.325Z,13.92
2018-12-30T19:06:22.432Z,13.88
2018-12-30T19:08:54.333Z,13.89
2018-12-30T19:11:25.671Z,13.86
2018-12-30T19:13:57.417Z,13.86
2018-12-30T19:16:29.037Z,13.84
2018-12-30T19:19:00.763Z,13.76
2018-12-30T19:21:32.240Z,13.76
2018-12-30T19:24:03.921Z,13.71
2018-12-30T19:26:35.504Z,13.61
2018-12-30T19:29:07.036Z,13.66
2018-12-30T19:31:38.207Z,13.66
2018-12-30T19:34:09.821Z,13.67
2018-12-30T19:36:41.871Z,13.65
2018-12-30T19:39:13.182Z,13.65
2018-12-30T19:41:44.500Z,13.68
2018-12-30T19:44:15.819Z,13.65
2018-12-30T19:49:17.540Z,13.56
2018-12-30T19:51:48.957Z,13.60
2018-12-30T19:54:20.596Z,13.60
2018-12-30T19:56:52.965Z,13.54
2018-12-30T19:59:24.729Z,13.53
2018-12-30T20:01:56.276Z,13.53
2018-12-30T20:04:27.605Z,13.39
2018-12-30T20:06:59.672Z,13.47
2018-12-30T20:09:31.329Z,13.65
2018-12-30T20:12:02.761Z,13.65
2018-12-30T20:14:34.749Z,13.71
2018-12-30T20:17:06.240Z,13.71
2018-12-30T20:19:37.496Z,13.71
2018-12-30T20:22:09.551Z,13.77
2018-12-30T20:24:40.929Z,13.77
2018-12-30T20:27:12.448Z,13.73
2018-12-30T20:29:44.066Z,13.64
2018-12-30T20:32:15.520Z,13.65
2018-12-30T20:34:46.820Z,13.65
2018-12-30T20:37:19.118Z,13.60
2018-12-30T20:39:50.787Z,13.45
2018-12-30T20:42:22.349Z,13.45
2018-12-30T20:44:53.668Z,13.51
2018-12-30T20:47:25.057Z,13.49
2018-12-30T20:49:56.572Z,13.49
2018-12-30T20:52:27.979Z,13.45
2018-12-30T20:54:59.683Z,13.45
2018-12-30T20:57:31.045Z,13.39
2018-12-30T21:00:02.618Z,13.48
2018-12-30T21:02:34.187Z,13.48
2018-12-30T21:05:05.976Z,13.52
2018-12-30T21:07:37.673Z,13.52
2018-12-30T21:10:09.430Z,13.38
2018-12-30T21:12:40.866Z,13.42
2018-12-30T21:15:12.304Z,13.42
2018-12-30T21:17:43.950Z,13.47
2018-12-30T21:20:16.164Z,13.47
2018-12-30T21:22:47.575Z,13.49
2018-12-30T21:25:19.631Z,13.41
2018-12-30T21:27:51.278Z,13.49
2018-12-30T21:30:22.857Z,13.49
2018-12-30T21:32:54.366Z,13.53
2018-12-30T21:35:25.819Z,13.22
2018-12-30T21:37:57.616Z,13.22
2018-12-30T21:40:28.969Z,13.20
2018-12-30T21:43:00.478Z,13.20
2018-12-30T21:45:32.737Z,13.32
2018-12-30T21:48:04.391Z,13.33
2018-12-30T21:50:36.025Z,13.29
2018-12-30T21:53:07.558Z,13.25
2018-12-30T21:55:39.069Z,13.16
2018-12-30T21:58:10.346Z,13.14
2018-12-30T22:00:41.689Z,13.18
2018-12-30T22:03:13.269Z,13.03
2018-12-30T22:05:44.719Z,13.03
2018-12-30T22:08:16.815Z,13.10
2018-12-30T22:10:48.261Z,13.10
2018-12-30T22:13:19.985Z,13.07
2018-12-30T22:15:51.385Z,13.01
2018-12-30T22:18:22.786Z,13.05
2018-12-30T22:20:53.991Z,13.05
2018-12-30T22:23:25.493Z,13.13
2018-12-30T22:25:57.488Z,13.06
2018-12-30T22:28:29.252Z,13.06
2018-12-30T22:31:01.178Z,13.01
2018-12-30T22:33:32.474Z,13.01
2018-12-30T22:36:03.772Z,13.01
2018-12-30T22:38:35.831Z,12.93
2018-12-30T22:41:07.549Z,12.93
2018-12-30T22:43:39.229Z,12.78
2018-12-30T22:46:10.689Z,12.72
2018-12-30T22:48:42.368Z,12.59
2018-12-30T22:51:13.962Z,12.59
2018-12-30T22:53:45.601Z,12.56
2018-12-30T22:56:17.243Z,12.57
2018-12-30T22:58:49.238Z,12.54
2018-12-30T23:01:25.403Z,12.57
2018-12-30T23:03:56.802Z,12.54
2018-12-30T23:06:29.132Z,12.55
2018-12-30T23:09:01.333Z,12.50
2018-12-30T23:11:34.193Z,12.58
2018-12-30T23:14:05.398Z,12.58
2018-12-30T23:16:36.696Z,12.59
2018-12-30T23:19:08.309Z,12.59
2018-12-30T23:21:39.612Z,12.45
2018-12-30T23:24:10.969Z,12.54
2018-12-30T23:26:43.235Z,12.48
2018-12-30T23:29:14.854Z,12.38
2018-12-30T23:31:46.077Z,12.38
2018-12-30T23:34:17.653Z,12.38
2018-12-30T23:36:49.287Z,12.39
2018-12-30T23:39:21.290Z,12.39
2018-12-30T23:41:52.949Z,12.38
2018-12-30T23:44:24.608Z,12.33
2018-12-30T23:46:56.538Z,12.31
2018-12-30T23:49:27.913Z,12.30
2018-12-30T23:51:59.541Z,12.35
2018-12-30T23:54:30.760Z,12.42
2018-12-30T23:57:02.424Z,12.42
2018-12-30T23:59:33.768Z,12.47
